Aérodrome :
LOGIN :

S'inscrire | Disclaimer

   EN    FR    IT 

 










Légende :    VFR   VFR Marginal   IFR   IFR Intensif   IFR Très Intensif
Visi : 
Plafond : 
>= 8 km
>= 3000ft
5 à 8 km
1000 à 3000 ft
1500m à 5 km
500 à 1000 ft
800 à 1500m
200 à 500 ft
< 800m
< 200 ft
Symboles :   Orages  Brouillard  Fortes neiges  Fortes précipitations  Vent > 20 kt
SIGMETs :   Divers  Orages  Givrage  Turbulence  Onde Orograph.  Cendres Volcan.






- Altitude de l'aérodrome : 587 ft
- Code IATA : XCR


LFOK - Chalons Vatry

DERNIER METAR :
  • 250230Z AUTO 36007KT CAVOK 14/13 Q1014 NOSIG

METARs EXPIRÉS :
  • 250200Z AUTO 01006KT CAVOK 15/13 Q1014 NOSIG
  • 250130Z AUTO 02007KT CAVOK 16/13 Q1014 NOSIG
  • 250100Z AUTO 02006KT CAVOK 16/14 Q1015 NOSIG
  • 250030Z AUTO 01005KT CAVOK 16/14 Q1015 NOSIG
  • 250000Z AUTO 03006KT CAVOK 17/14 Q1015 NOSIG
  • 242330Z AUTO 02005KT CAVOK 17/14 Q1015 NOSIG
  • 242300Z AUTO 01005KT CAVOK 18/14 Q1015 NOSIG
  • 242230Z AUTO 01005KT CAVOK 18/14 Q1016 NOSIG
  • 242200Z AUTO 01004KT CAVOK 19/15 Q1016 NOSIG

TAF TAF LFOK
Valide du 25 à 00h jusqu'au 26 à 00h UTC


242300Z 2500/2524 03004KT CAVOK



MET'MAP, la Météo Aéronautique d'un coup d'oeil ! - Copyright ORBIFLY Décembre 2007 - Disclaimer

ORBIFLY MET'MAP TEAM :

Programmation & Développement : Alexandra Zaïnal
Sur une idée originale de : Baudouin d'Aumeries
Soutien technique & logistique : Manuel Goepfert
Assistance : Marc-Olivier Méhu




SOURCES & CREDITS :

   NOAA